Time;durP1;ratioP1;P1;durP2;ratioP2;P2;SDS_P1;SDS_P2;PMS_P1;PMS_P2;Temp;Humidity;BMP_temperature;BMP_pressure;BME280_temperature;BME280_humidity;BME280_pressure;Samples;Min_cycle;Max_cycle;Signal;HPM_P1;HPM_P2
2023/07/30 00:00:49;;;;;;;6.97;2.20;;;;;;;15.34;83.71;100899.44;6189431;23;20093;-75
2023/07/30 00:03:16;;;;;;;5.95;1.92;;;;;;;15.31;83.03;100896.94;6162391;23;20084;-75
2023/07/30 00:05:42;;;;;;;8.25;2.35;;;;;;;15.28;83.47;100895.19;6162080;23;20014;-75
2023/07/30 00:08:09;;;;;;;11.15;2.30;;;;;;;15.26;83.84;100897.63;6188664;23;20044;-74
2023/07/30 00:10:36;;;;;;;5.70;2.22;;;;;;;15.22;83.61;100892.44;6188675;23;20100;-75
2023/07/30 00:13:02;;;;;;;5.93;1.70;;;;;;;15.21;84.08;100903.63;6188262;23;20049;-75
2023/07/30 00:15:29;;;;;;;9.60;2.03;;;;;;;15.20;83.91;100902.16;6188599;23;20512;-75
2023/07/30 00:17:56;;;;;;;5.85;2.00;;;;;;;15.16;84.28;100902.38;6163064;23;20458;-76
2023/07/30 00:20:22;;;;;;;6.93;2.10;;;;;;;15.15;84.61;100905.53;6187394;23;20021;-76
2023/07/30 00:22:49;;;;;;;5.55;1.95;;;;;;;15.11;84.70;100908.41;6189048;23;20412;-75
2023/07/30 00:25:16;;;;;;;5.38;1.77;;;;;;;15.10;84.73;100906.19;6162558;23;20018;-76
2023/07/30 00:27:42;;;;;;;6.70;2.10;;;;;;;15.07;84.83;100905.16;6188622;23;20017;-75
2023/07/30 00:30:09;;;;;;;4.63;2.13;;;;;;;15.06;85.06;100908.31;6157549;23;20109;-75
2023/07/30 00:32:40;;;;;;;6.32;2.22;;;;;;;15.04;85.35;100908.03;6157330;23;20037;-75
2023/07/30 00:35:10;;;;;;;5.05;1.95;;;;;;;15.01;85.52;100910.44;6157313;23;20024;-76
2023/07/30 00:37:37;;;;;;;5.05;1.65;;;;;;;15.00;85.75;100906.28;6156938;23;20376;-76
2023/07/30 00:40:04;;;;;;;8.73;2.20;;;;;;;14.97;85.83;100915.25;6159456;23;20474;-75
2023/07/30 00:42:31;;;;;;;4.22;1.70;;;;;;;14.95;86.05;100909.63;6158795;23;20018;-76
2023/07/30 00:44:57;;;;;;;9.00;2.50;;;;;;;14.96;86.53;100913.03;6159678;23;20014;-77
2023/07/30 00:47:25;;;;;;;8.00;2.03;;;;;;;14.94;86.68;100905.47;6156393;23;20046;-77
2023/07/30 00:49:53;;;;;;;2.97;1.95;;;;;;;14.93;86.63;100909.34;6159323;23;20449;-77
2023/07/30 00:52:21;;;;;;;4.70;1.90;;;;;;;14.90;87.09;100899.56;6158682;23;20085;-76
2023/07/30 00:54:49;;;;;;;4.43;1.88;;;;;;;14.88;87.50;100906.59;6157374;23;20069;-76
2023/07/30 00:57:18;;;;;;;5.38;1.92;;;;;;;14.86;87.97;100907.03;6159229;23;20014;-77
2023/07/30 00:59:47;;;;;;;7.90;2.40;;;;;;;14.87;87.96;100907.78;6132944;23;20105;-76
2023/07/30 01:02:14;;;;;;;4.18;2.10;;;;;;;14.85;88.43;100902.88;6158874;23;20063;-76
2023/07/30 01:04:42;;;;;;;7.00;2.17;;;;;;;14.84;88.54;100906.03;6158709;23;20014;-76
2023/07/30 01:07:09;;;;;;;3.15;2.00;;;;;;;14.84;88.82;100908.72;6157322;23;20077;-76
2023/07/30 01:09:36;;;;;;;6.88;2.00;;;;;;;14.81;89.46;100909.63;6158378;23;20026;-76
2023/07/30 01:12:04;;;;;;;5.70;2.10;;;;;;;14.82;89.23;100911.84;6159247;23;20477;-77
2023/07/30 01:14:32;;;;;;;11.02;2.05;;;;;;;14.80;89.76;100906.22;6158499;23;20567;-77
2023/07/30 01:16:59;;;;;;;10.38;2.40;;;;;;;14.78;90.12;100919.38;6158865;23;20393;-76
2023/07/30 01:19:26;;;;;;;5.07;2.08;;;;;;;14.76;90.71;100915.69;6156719;23;20022;-76
2023/07/30 01:21:52;;;;;;;6.18;2.17;;;;;;;14.74;91.18;100916.13;6159192;23;20065;-76
2023/07/30 01:24:19;;;;;;;7.53;2.53;;;;;;;14.73;91.44;100919.28;6156837;23;20073;-76
2023/07/30 01:27:00;;;;;;;3.72;2.38;;;;;;;14.73;91.30;100922.69;6157497;23;20122;-76
2023/07/30 01:29:45;;;;;;;11.77;2.65;;;;;;;14.71;91.34;100919.00;6165565;23;20136;-77
2023/07/30 01:32:13;;;;;;;6.10;2.30;;;;;;;14.68;91.89;100926.03;6188775;23;20014;-76
2023/07/30 01:34:43;;;;;;;4.45;2.40;;;;;;;14.67;92.32;100927.97;6188201;23;20017;-76
2023/07/30 01:37:12;;;;;;;7.88;2.90;;;;;;;14.67;92.68;100927.22;6188816;23;20436;-77
2023/07/30 01:39:41;;;;;;;6.38;2.13;;;;;;;14.67;93.18;100936.00;6188064;23;20452;-77
2023/07/30 01:42:07;;;;;;;6.60;2.65;;;;;;;14.69;93.70;100930.19;6188874;23;20415;-77
2023/07/30 01:44:34;;;;;;;4.85;2.33;;;;;;;14.69;93.32;100919.47;6188174;23;20024;-76
2023/07/30 01:47:01;;;;;;;6.40;2.28;;;;;;;14.71;93.62;100921.69;6188472;23;20045;-78
2023/07/30 01:49:27;;;;;;;8.88;2.80;;;;;;;14.72;93.34;100923.91;6188102;23;20053;-77
2023/07/30 01:51:54;;;;;;;13.13;2.53;;;;;;;14.72;93.51;100920.47;6162206;23;20017;-77
2023/07/30 01:54:20;;;;;;;6.13;2.50;;;;;;;14.73;94.56;100930.75;6187958;23;20510;-77
2023/07/30 01:56:47;;;;;;;8.25;2.70;;;;;;;14.74;94.27;100918.81;6162052;23;20018;-77
2023/07/30 01:59:14;;;;;;;8.02;2.38;;;;;;;14.75;94.35;100927.59;6188743;23;20017;-76
2023/07/30 02:01:42;;;;;;;7.47;2.58;;;;;;;14.75;94.21;100931.00;6160630;23;20458;-76
2023/07/30 02:04:08;;;;;;;7.68;2.45;;;;;;;14.76;94.59;100932.50;6188775;23;20041;-76
2023/07/30 02:06:35;;;;;;;13.65;2.58;;;;;;;14.76;94.66;100935.16;6187720;23;20013;-77
2023/07/30 02:09:02;;;;;;;12.55;2.45;;;;;;;14.76;95.50;100929.06;6188267;23;20467;-76
2023/07/30 02:11:28;;;;;;;7.07;2.45;;;;;;;14.78;95.14;100932.78;6188020;23;20025;-77
2023/07/30 02:13:55;;;;;;;10.20;3.08;;;;;;;14.78;95.33;100929.34;6188559;23;20452;-78
2023/07/30 02:16:22;;;;;;;9.18;2.55;;;;;;;14.78;95.52;100932.78;6187346;23;20077;-77
2023/07/30 02:18:48;;;;;;;8.02;2.60;;;;;;;14.78;95.87;100929.34;6188235;23;20029;-77
2023/07/30 02:21:15;;;;;;;9.50;2.58;;;;;;;14.79;95.88;100928.88;6161828;23;20029;-77
2023/07/30 02:23:42;;;;;;;10.27;2.60;;;;;;;14.80;96.56;100929.59;6161047;23;20067;-76
2023/07/30 02:26:08;;;;;;;8.45;2.40;;;;;;;14.79;96.38;100928.16;6188334;23;20434;-76
2023/07/30 02:28:35;;;;;;;8.80;2.60;;;;;;;14.80;96.55;100930.34;6160937;23;20470;-77
2023/07/30 02:31:01;;;;;;;6.57;2.58;;;;;;;14.79;96.73;100928.16;6157059;23;20408;-77
2023/07/30 02:33:28;;;;;;;9.18;2.83;;;;;;;14.78;96.96;100926.66;6159480;23;20440;-76
2023/07/30 02:35:55;;;;;;;13.05;2.97;;;;;;;14.78;97.03;100926.66;6158006;23;20022;-78
2023/07/30 02:38:22;;;;;;;14.85;3.20;;;;;;;14.76;97.90;100924.44;6158893;23;20018;-77
2023/07/30 02:40:49;;;;;;;9.05;2.83;;;;;;;14.76;97.97;100923.72;6158441;23;20018;-77
2023/07/30 02:43:15;;;;;;;9.45;2.80;;;;;;;14.75;98.29;100920.28;6160116;23;20444;-77
2023/07/30 02:45:42;;;;;;;8.15;2.70;;;;;;;14.74;98.73;100923.44;6156849;23;20014;-77
2023/07/30 02:48:08;;;;;;;13.35;3.30;;;;;;;14.74;98.65;100920.75;6158356;23;20026;-76
2023/07/30 02:50:35;;;;;;;17.45;3.33;;;;;;;14.73;99.26;100920.00;6157288;23;20041;-77
2023/07/30 02:53:02;;;;;;;9.23;3.05;;;;;;;14.72;99.19;100915.13;6158283;23;20018;-77
2023/07/30 02:55:28;;;;;;;17.50;3.35;;;;;;;14.71;99.65;100911.69;6159075;23;20018;-77
2023/07/30 02:57:55;;;;;;;13.85;3.47;;;;;;;14.71;99.74;100910.97;6157668;23;20061;-77
2023/07/30 03:00:21;;;;;;;14.95;3.13;;;;;;;14.67;100.00;100916.50;6157400;23;20022;-77
2023/07/30 03:02:48;;;;;;;13.70;3.63;;;;;;;14.65;100.00;100916.97;6158016;23;20077;-77
2023/07/30 03:05:15;;;;;;;17.30;3.67;;;;;;;14.63;100.00;100921.31;6133555;23;20041;-77
2023/07/30 03:07:43;;;;;;;14.32;3.58;;;;;;;14.62;100.00;100909.84;6133222;23;20026;-77
2023/07/30 03:10:10;;;;;;;13.40;3.33;;;;;;;14.62;100.00;100917.88;6159619;23;20069;-77
2023/07/30 03:12:37;;;;;;;11.27;3.28;;;;;;;14.62;100.00;100919.84;6158614;23;20100;-76
2023/07/30 03:15:03;;;;;;;14.77;3.45;;;;;;;14.61;100.00;100916.41;6159767;23;20026;-76
2023/07/30 03:17:30;;;;;;;13.40;3.30;;;;;;;14.60;100.00;100925.66;6158975;23;20444;-77
2023/07/30 03:19:57;;;;;;;14.25;3.63;;;;;;;14.59;100.00;100924.16;6159875;23;20021;-77
2023/07/30 03:22:23;;;;;;;16.50;3.65;;;;;;;14.60;100.00;100922.22;6157079;23;20022;-77
2023/07/30 03:24:50;;;;;;;11.90;3.72;;;;;;;14.60;100.00;100922.22;6157763;23;20058;-76
2023/07/30 03:27:17;;;;;;;16.73;3.65;;;;;;;14.58;100.00;100925.38;6132890;23;20026;-76
2023/07/30 03:29:43;;;;;;;18.52;4.00;;;;;;;14.60;100.00;100922.22;6169954;23;20017;-77
2023/07/30 03:32:10;;;;;;;11.52;3.70;;;;;;;14.59;100.00;100924.16;6189529;23;20022;-76
2023/07/30 03:34:37;;;;;;;13.50;3.88;;;;;;;14.59;100.00;100928.78;6188875;23;20014;-77
2023/07/30 03:37:05;;;;;;;14.38;4.25;;;;;;;14.57;100.00;100928.50;6162190;23;20022;-77
2023/07/30 03:39:32;;;;;;;20.55;4.13;;;;;;;14.56;100.00;100932.38;6188660;23;20452;-76
2023/07/30 03:41:58;;;;;;;19.40;3.85;;;;;;;14.54;100.00;100932.84;6188403;23;20013;-76
2023/07/30 03:44:25;;;;;;;12.40;4.18;;;;;;;14.55;100.00;100936.28;6161863;23;20383;-76
2023/07/30 03:46:51;;;;;;;17.52;4.43;;;;;;;14.55;100.00;100936.28;6189371;23;20088;-77
2023/07/30 03:49:18;;;;;;;14.80;4.15;;;;;;;14.54;100.00;100940.88;6188712;23;20419;-77
2023/07/30 03:51:45;;;;;;;19.15;4.45;;;;;;;14.53;100.00;100942.09;6189180;23;20097;-76
2023/07/30 03:54:11;;;;;;;16.05;4.65;;;;;;;14.54;100.00;100934.78;6162366;23;20017;-76
2023/07/30 03:56:38;;;;;;;12.27;3.83;;;;;;;14.53;100.00;100944.03;6187883;23;20307;-76
2023/07/30 03:59:04;;;;;;;18.77;4.00;;;;;;;14.54;100.00;100937.47;6189343;23;20088;-75
2023/07/30 04:01:31;;;;;;;13.52;4.03;;;;;;;14.54;100.00;100940.88;6188658;23;20452;-76
2023/07/30 04:03:57;;;;;;;22.98;4.35;;;;;;;14.55;100.00;100933.59;6162309;23;20022;-76
2023/07/30 04:06:24;;;;;;;14.90;4.38;;;;;;;14.57;100.00;100944.59;6161519;23;20053;-77
2023/07/30 04:08:51;;;;;;;18.70;4.05;;;;;;;14.58;100.00;100940.72;6188741;23;20013;-76
2023/07/30 04:11:17;;;;;;;19.83;4.22;;;;;;;14.60;100.00;100949.03;6188253;23;20017;-76
2023/07/30 04:13:44;;;;;;;20.48;4.28;;;;;;;14.60;100.00;100931.00;6189177;23;20014;-76
2023/07/30 04:16:10;;;;;;;14.98;4.65;;;;;;;14.62;100.00;100936.66;6162418;23;20076;-76
2023/07/30 04:18:37;;;;;;;20.17;4.70;;;;;;;14.63;100.00;100937.38;6162003;23;20491;-76
2023/07/30 04:21:04;;;;;;;25.25;5.68;;;;;;;14.63;100.00;100932.75;6189127;23;20052;-76
2023/07/30 04:23:30;;;;;;;18.70;4.97;;;;;;;14.65;100.00;100945.69;6188033;23;20435;-76
2023/07/30 04:25:57;;;;;;;18.52;4.78;;;;;;;14.66;100.00;100944.50;6188514;23;20022;-76
2023/07/30 04:28:23;;;;;;;22.83;5.82;;;;;;;14.69;100.00;100946.25;6161537;23;20053;-76
2023/07/30 04:30:50;;;;;;;19.58;4.53;;;;;;;14.73;100.00;100944.13;6138042;23;20033;-76
2023/07/30 04:33:17;;;;;;;11.48;4.40;;;;;;;14.75;100.00;100946.34;6132358;23;20044;-76
2023/07/30 04:35:44;;;;;;;18.35;4.55;;;;;;;14.79;100.00;100950.31;6132767;23;20452;-76
2023/07/30 04:38:11;;;;;;;24.27;4.65;;;;;;;14.82;100.00;100956.69;6133261;23;20014;-76
2023/07/30 04:40:39;;;;;;;15.18;4.57;;;;;;;14.85;100.00;100953.81;6107154;23;20281;-76
2023/07/30 04:43:06;;;;;;;19.02;5.10;;;;;;;14.87;100.00;100954.09;6132625;23;20117;-76
2023/07/30 04:45:32;;;;;;;29.55;5.53;;;;;;;14.91;100.00;100956.59;6158417;23;20022;-77
2023/07/30 04:47:59;;;;;;;24.38;5.15;;;;;;;14.94;100.00;100961.75;6132820;23;20018;-76
2023/07/30 04:50:26;;;;;;;18.15;5.20;;;;;;;14.96;100.00;100956.66;6131835;23;20025;-76
2023/07/30 04:52:52;;;;;;;33.25;5.53;;;;;;;15.00;100.00;100962.59;6158748;23;20018;-76
2023/07/30 04:55:19;;;;;;;17.40;4.68;;;;;;;15.04;100.00;100970.44;6131452;23;20056;-76
2023/07/30 04:57:45;;;;;;;26.75;5.38;;;;;;;15.08;100.00;100965.63;6132654;23;20427;-76
2023/07/30 05:00:12;;;;;;;21.70;5.40;;;;;;;15.13;100.00;100966.91;6132774;23;20018;-76
2023/07/30 05:02:39;;;;;;;25.45;6.10;;;;;;;15.18;100.00;100969.69;6131755;23;20028;-76
2023/07/30 05:05:06;;;;;;;21.50;5.10;;;;;;;15.22;100.00;100970.22;6158872;23;20018;-76
2023/07/30 05:07:33;;;;;;;23.65;5.20;;;;;;;15.30;100.00;100971.31;6158176;23;20020;-76
2023/07/30 05:09:59;;;;;;;24.20;5.22;;;;;;;15.38;100.00;100968.97;6158510;23;20014;-76
2023/07/30 05:12:26;;;;;;;23.55;5.38;;;;;;;15.41;100.00;100970.72;6158124;23;20025;-76
2023/07/30 05:14:53;;;;;;;18.42;4.82;;;;;;;15.49;100.00;100968.41;6159012;23;20022;-76
2023/07/30 05:17:19;;;;;;;15.82;5.00;;;;;;;15.54;100.00;100968.47;6158395;23;20025;-77
2023/07/30 05:19:46;;;;;;;23.40;5.80;;;;;;;15.59;100.00;100975.16;6159038;23;20463;-76
2023/07/30 05:22:13;;;;;;;18.58;5.72;;;;;;;15.63;100.00;100973.00;6158860;23;20504;-75
2023/07/30 05:24:39;;;;;;;29.48;6.45;;;;;;;15.67;100.00;100978.91;6131050;23;20026;-75
2023/07/30 05:27:06;;;;;;;18.65;5.80;;;;;;;15.73;100.00;100978.97;6158945;23;20018;-75
2023/07/30 05:29:33;;;;;;;22.05;5.93;;;;;;;15.80;100.00;100973.22;6166317;23;20017;-75
2023/07/30 05:32:00;;;;;;;18.83;5.80;;;;;;;15.84;100.00;100971.81;6188798;23;20017;-75
2023/07/30 05:34:27;;;;;;;17.02;5.47;;;;;;;15.87;100.00;100975.50;6161270;23;20028;-75
2023/07/30 05:36:53;;;;;;;19.45;5.72;;;;;;;15.89;100.00;100965.78;6188536;23;20018;-75
2023/07/30 05:39:20;;;;;;;19.75;6.30;;;;;;;15.93;100.00;100971.69;6187551;23;20045;-75
2023/07/30 05:41:46;;;;;;;20.67;5.55;;;;;;;16.02;100.00;100973.47;6162368;23;20018;-75
2023/07/30 05:44:13;;;;;;;23.73;5.53;;;;;;;16.10;100.00;100979.16;6188672;23;20021;-75
2023/07/30 05:46:39;;;;;;;25.95;5.95;;;;;;;16.14;100.00;100983.13;6188047;23;20009;-75
2023/07/30 05:49:06;;;;;;;20.67;5.68;;;;;;;16.16;100.00;100974.59;6188821;23;20044;-75
2023/07/30 05:51:33;;;;;;;26.15;6.88;;;;;;;16.19;100.00;100973.66;6187766;23;20499;-75
2023/07/30 05:53:59;;;;;;;20.08;6.47;;;;;;;16.23;100.00;100982.25;6161656;23;20032;-75
2023/07/30 05:56:26;;;;;;;19.88;5.97;;;;;;;16.26;100.00;100986.69;6187706;23;20018;-76
2023/07/30 05:58:53;;;;;;;22.50;7.15;;;;;;;16.28;100.00;100985.00;6188590;23;20017;-77
2023/07/30 06:01:20;;;;;;;19.42;6.40;;;;;;;16.32;100.00;100984.81;6187892;23;20024;-76
2023/07/30 06:03:46;;;;;;;22.40;6.53;;;;;;;16.39;100.00;100978.28;6188599;23;20033;-77
2023/07/30 06:06:13;;;;;;;18.05;5.95;;;;;;;16.41;100.00;100983.88;6189421;23;20014;-75
2023/07/30 06:08:40;;;;;;;20.35;6.43;;;;;;;16.40;100.00;100987.78;6161967;23;20443;-75
2023/07/30 06:11:06;;;;;;;21.65;6.82;;;;;;;16.40;100.00;100987.78;6189654;23;20017;-76
2023/07/30 06:13:33;;;;;;;18.15;6.53;;;;;;;16.43;100.00;100984.16;6189046;23;20022;-76
2023/07/30 06:15:59;;;;;;;20.75;6.45;;;;;;;16.45;100.00;100992.47;6163295;23;20021;-78
2023/07/30 06:18:26;;;;;;;23.23;7.28;;;;;;;16.40;100.00;100985.09;6189201;23;20362;-77
2023/07/30 06:20:52;;;;;;;22.98;7.05;;;;;;;16.42;100.00;100994.16;6189139;23;20018;-77
2023/07/30 06:23:19;;;;;;;23.98;7.18;;;;;;;16.42;100.00;100988.03;6162355;23;20096;-78
2023/07/30 06:25:46;;;;;;;17.13;7.00;;;;;;;16.48;100.00;100988.84;6163442;23;20013;-78
2023/07/30 06:28:12;;;;;;;22.45;6.85;;;;;;;16.50;100.00;100992.53;6189623;23;20411;-77
2023/07/30 06:30:39;;;;;;;17.00;6.90;;;;;;;16.58;100.00;100995.53;6188540;23;20514;-77
2023/07/30 06:33:06;;;;;;;19.55;7.10;;;;;;;16.70;100.00;100991.78;6189612;23;20372;-77
2023/07/30 06:35:32;;;;;;;24.60;7.25;;;;;;;16.76;99.58;101002.59;6161555;23;20022;-77
2023/07/30 06:37:59;;;;;;;22.00;7.63;;;;;;;16.81;99.21;100996.50;6189563;23;20017;-76
2023/07/30 06:40:26;;;;;;;23.05;7.47;;;;;;;16.80;98.88;100986.97;6162192;23;20092;-79
2023/07/30 06:42:52;;;;;;;20.60;7.50;;;;;;;16.83;98.54;100992.13;6163435;23;20085;-79
2023/07/30 06:45:20;;;;;;;23.58;7.22;;;;;;;16.89;98.12;100992.16;6189144;23;20022;-77
2023/07/30 06:47:46;;;;;;;20.83;6.85;;;;;;;16.87;97.87;100992.66;6189984;23;20483;-77
2023/07/30 06:50:13;;;;;;;21.13;6.82;;;;;;;16.88;98.24;100988.75;6189028;23;20021;-77
2023/07/30 06:52:39;;;;;;;22.88;7.35;;;;;;;16.89;97.25;100987.53;6188706;23;20465;-77
2023/07/30 06:55:06;;;;;;;21.20;7.47;;;;;;;16.89;97.17;100987.53;6189435;23;20444;-78
2023/07/30 06:57:33;;;;;;;19.05;6.07;;;;;;;16.93;97.86;100987.31;6189094;23;20097;-77
2023/07/30 07:00:00;;;;;;;17.80;6.05;;;;;;;16.90;97.15;100985.59;6189821;23;20013;-78
2023/07/30 07:02:27;;;;;;;17.70;6.88;;;;;;;16.88;97.86;100990.69;6137737;23;20032;-77
2023/07/30 07:04:54;;;;;;;20.63;5.72;;;;;;;16.88;96.50;100994.13;6188980;23;20105;-78
2023/07/30 07:07:20;;;;;;;20.50;6.03;;;;;;;16.89;97.02;100990.22;6188546;23;20085;-78
2023/07/30 07:09:47;;;;;;;22.77;6.43;;;;;;;16.91;96.24;100995.88;6189349;23;20084;-75
2023/07/30 07:12:14;;;;;;;19.38;6.35;;;;;;;16.94;95.96;101000.28;6162703;23;20021;-74
2023/07/30 07:14:42;;;;;;;20.88;6.15;;;;;;;16.91;95.49;101005.88;6188733;23;20073;-74
2023/07/30 07:17:09;;;;;;;17.77;5.45;;;;;;;16.84;94.93;101007.03;6189534;23;20024;-74
2023/07/30 07:19:36;;;;;;;18.08;5.47;;;;;;;16.85;95.91;101003.13;6188091;23;20033;-75
2023/07/30 07:22:04;;;;;;;19.40;5.78;;;;;;;16.86;95.77;101007.31;6189403;23;20080;-75
2023/07/30 07:24:31;;;;;;;20.77;5.90;;;;;;;16.95;95.83;101012.53;6188771;23;20014;-75
2023/07/30 07:26:57;;;;;;;20.15;5.25;;;;;;;17.02;95.36;101010.63;6189009;23;20017;-75
2023/07/30 07:29:24;;;;;;;18.58;5.25;;;;;;;17.03;94.59;101012.84;6188559;23;20022;-75
2023/07/30 07:31:51;;;;;;;15.82;5.07;;;;;;;17.06;94.02;101008.44;6189760;23;20022;-75
2023/07/30 07:34:17;;;;;;;15.50;4.72;;;;;;;17.17;94.14;101008.53;6188555;23;20132;-75
2023/07/30 07:36:44;;;;;;;19.35;5.30;;;;;;;17.29;93.17;101005.44;6189483;23;20014;-76
2023/07/30 07:39:11;;;;;;;17.23;4.95;;;;;;;17.40;92.55;101002.06;6189416;23;20436;-75
2023/07/30 07:41:38;;;;;;;17.60;4.90;;;;;;;17.47;91.63;100993.56;6188584;23;20022;-75
2023/07/30 07:44:05;;;;;;;12.63;4.70;;;;;;;17.49;90.47;101001.16;6189457;23;20495;-75
2023/07/30 07:46:31;;;;;;;11.10;4.03;;;;;;;17.52;90.54;101003.63;6188941;23;20013;-75
2023/07/30 07:48:58;;;;;;;14.70;4.25;;;;;;;17.64;89.79;101002.44;6188955;23;20352;-75
2023/07/30 07:51:25;;;;;;;14.07;4.20;;;;;;;17.76;89.30;101007.94;6162281;23;20021;-76
2023/07/30 07:53:52;;;;;;;13.15;4.25;;;;;;;17.81;88.45;101002.56;6189336;23;20436;-76
2023/07/30 07:56:19;;;;;;;20.02;4.47;;;;;;;17.82;88.26;100995.22;6188479;23;20045;-76
2023/07/30 07:58:45;;;;;;;20.67;4.78;;;;;;;17.82;88.07;101006.00;6162822;23;20503;-75
2023/07/30 08:01:12;;;;;;;14.05;4.40;;;;;;;17.83;88.18;101012.84;6189395;23;20147;-75
2023/07/30 08:03:38;;;;;;;17.70;4.43;;;;;;;17.93;88.27;101019.53;6161675;23;20455;-75
2023/07/30 08:06:06;;;;;;;10.02;3.88;;;;;;;18.10;87.80;101009.53;6162550;23;20444;-75
2023/07/30 08:08:32;;;;;;;13.48;4.53;;;;;;;18.27;86.59;101009.59;6188608;23;20072;-75
2023/07/30 08:11:04;;;;;;;18.73;4.50;;;;;;;18.41;85.16;101019.41;6189358;23;20017;-75
2023/07/30 08:13:31;;;;;;;18.45;4.40;;;;;;;18.42;84.04;101014.75;6188802;23;20506;-75
2023/07/30 08:15:58;;;;;;;12.00;4.60;;;;;;;18.85;84.66;101018.03;6189499;23;20017;-75
2023/07/30 08:18:24;;;;;;;17.98;4.88;;;;;;;19.44;81.70;101006.94;6161567;23;20072;-75
2023/07/30 08:20:51;;;;;;;16.38;4.10;;;;;;;19.59;78.96;100999.31;6189283;23;20028;-76
2023/07/30 08:23:17;;;;;;;17.02;4.70;;;;;;;19.37;79.53;101018.25;6189074;23;20444;-77
2023/07/30 08:25:44;;;;;;;15.05;4.22;;;;;;;19.16;78.79;101003.56;6189344;23;20049;-75
2023/07/30 08:28:11;;;;;;;17.60;4.43;;;;;;;19.09;80.66;101001.34;6189019;23;20490;-76
2023/07/30 08:30:38;;;;;;;15.52;4.00;;;;;;;18.91;79.96;101003.31;6188377;23;20018;-76
2023/07/30 08:33:04;;;;;;;15.95;4.15;;;;;;;18.72;80.44;101013.13;6188528;23;20055;-75
2023/07/30 08:35:31;;;;;;;13.75;4.18;;;;;;;18.65;81.90;101003.56;6188558;23;20020;-76
2023/07/30 08:37:57;;;;;;;15.45;4.10;;;;;;;18.64;81.63;101004.03;6162656;23;20060;-75
2023/07/30 08:40:24;;;;;;;12.82;3.90;;;;;;;18.65;80.82;101005.53;6188618;23;20041;-76
2023/07/30 08:42:52;;;;;;;9.65;3.63;;;;;;;18.74;79.88;101001.84;6189254;23;20014;-76
2023/07/30 08:45:19;;;;;;;11.60;3.47;;;;;;;18.76;79.88;101008.22;6188501;23;20482;-76
2023/07/30 08:47:47;;;;;;;16.63;3.67;;;;;;;18.99;78.16;101011.66;6188702;23;20017;-75
2023/07/30 08:50:14;;;;;;;17.40;3.50;;;;;;;19.02;77.47;101002.59;6189060;23;20024;-75
2023/07/30 08:52:41;;;;;;;12.07;3.40;;;;;;;18.97;77.83;101006.00;6188052;23;20105;-74
2023/07/30 08:55:10;;;;;;;19.05;3.58;;;;;;;19.32;79.04;101006.22;6162445;23;20024;-75
2023/07/30 08:57:38;;;;;;;12.15;3.15;;;;;;;19.77;76.09;101016.19;6161592;23;20073;-74
2023/07/30 09:00:09;;;;;;;10.85;3.30;;;;;;;19.77;74.77;101011.53;6189167;23;20084;-74
2023/07/30 09:02:38;;;;;;;10.25;3.30;;;;;;;19.79;74.61;101011.78;6161223;23;20024;-74
2023/07/30 09:05:06;;;;;;;13.32;3.30;;;;;;;19.84;75.87;101019.13;6189142;23;20463;-74
2023/07/30 09:07:33;;;;;;;12.43;3.00;;;;;;;19.93;75.61;101021.56;6188340;23;20017;-75
2023/07/30 09:09:59;;;;;;;10.90;3.47;;;;;;;20.02;75.99;101020.50;6189407;23;20017;-75
2023/07/30 09:12:30;;;;;;;13.88;3.63;;;;;;;19.97;74.29;101021.28;6188135;23;20024;-76
2023/07/30 09:14:57;;;;;;;12.98;3.25;;;;;;;19.85;74.80;101014.47;6188686;23;20518;-76
2023/07/30 09:17:25;;;;;;;7.85;2.92;;;;;;;19.73;74.71;101002.94;6188315;23;20017;-76
2023/07/30 09:19:52;;;;;;;10.23;3.15;;;;;;;19.74;74.95;101028.00;6162193;23;20025;-76
2023/07/30 09:22:25;;;;;;;10.50;3.20;;;;;;;19.88;75.80;101025.00;6188177;23;20081;-74
2023/07/30 09:24:53;;;;;;;15.30;3.47;;;;;;;19.85;74.75;101022.56;6188874;23;20044;-75
2023/07/30 09:27:28;;;;;;;19.88;3.00;;;;;;;19.75;73.93;101042.97;6161251;23;20127;-74
2023/07/30 09:29:59;;;;;;;10.52;3.28;;;;;;;19.71;73.87;101045.19;6188091;23;20053;-73
2023/07/30 09:32:27;;;;;;;11.23;3.25;;;;;;;19.61;73.77;101036.63;6188216;23;20117;-74
2023/07/30 09:34:55;;;;;;;12.40;3.58;;;;;;;19.54;73.78;101031.75;6189264;23;20017;-74
2023/07/30 09:37:21;;;;;;;10.75;2.95;;;;;;;19.59;74.66;101047.91;6136611;23;20475;-74
2023/07/30 09:39:48;;;;;;;10.95;3.15;;;;;;;19.72;74.87;101047.41;6188221;23;20029;-76
2023/07/30 09:42:15;;;;;;;11.60;3.20;;;;;;;19.76;73.90;101053.28;6189120;23;20018;-75
2023/07/30 09:44:41;;;;;;;6.60;2.65;;;;;;;19.83;73.91;101050.06;6187117;23;20443;-74
2023/07/30 09:47:09;;;;;;;6.97;2.60;;;;;;;20.01;73.96;101061.53;6188312;23;20466;-74
2023/07/30 09:49:39;;;;;;;13.73;3.42;;;;;;;20.34;71.91;101050.59;6188201;23;20028;-74
2023/07/30 09:52:06;;;;;;;12.30;3.30;;;;;;;20.39;70.49;101065.34;6162644;23;20021;-74
2023/07/30 09:54:33;;;;;;;7.95;2.45;;;;;;;20.27;69.64;101059.97;6188085;23;20444;-74
2023/07/30 09:56:59;;;;;;;14.00;3.00;;;;;;;20.33;70.27;101061.91;6188694;23;20013;-74
2023/07/30 09:59:26;;;;;;;11.77;2.75;;;;;;;20.18;69.17;101059.50;6187232;23;20028;-75
2023/07/30 10:01:55;;;;;;;10.70;2.92;;;;;;;20.29;69.89;101059.47;6162163;23;20459;-74
2023/07/30 10:04:22;;;;;;;8.57;2.58;;;;;;;21.01;68.02;101071.81;6188150;23;20089;-74
2023/07/30 10:06:55;;;;;;;7.35;2.45;;;;;;;21.01;66.45;101071.81;6188750;23;20018;-75
2023/07/30 10:09:25;;;;;;;5.93;2.22;;;;;;;21.26;63.97;101081.47;6161522;23;20468;-75
2023/07/30 10:11:53;;;;;;;6.88;2.22;;;;;;;21.12;62.95;101084.53;6162222;23;20017;-76
2023/07/30 10:14:23;;;;;;;7.40;2.33;;;;;;;21.00;65.02;101085.84;6187164;23;20018;-76
2023/07/30 10:16:52;;;;;;;5.93;2.25;;;;;;;20.94;62.04;101073.09;6188847;23;20452;-74
2023/07/30 10:19:23;;;;;;;7.65;2.58;;;;;;;20.80;63.24;101089.66;6187825;23;20017;-74
2023/07/30 10:21:50;;;;;;;5.25;2.00;;;;;;;21.20;61.00;101082.72;6188762;23;20045;-76
2023/07/30 10:24:17;;;;;;;8.50;2.08;;;;;;;21.55;59.87;101090.81;6188703;23;20041;-77
2023/07/30 10:26:44;;;;;;;6.35;1.90;;;;;;;21.49;58.03;101082.00;6188550;23;20453;-76
2023/07/30 10:29:18;;;;;;;6.97;1.60;;;;;;;21.22;59.58;101080.28;6187676;23;20467;-76
2023/07/30 10:31:57;;;;;;;9.65;2.47;;;;;;;21.02;59.78;101086.81;6188561;23;20017;-75
2023/07/30 10:34:42;;;;;;;6.93;1.60;;;;;;;20.82;60.59;101087.94;6188346;23;20010;-75
2023/07/30 10:37:09;;;;;;;7.78;1.80;;;;;;;21.00;60.76;101093.97;6188664;23;20046;-76
2023/07/30 10:39:36;;;;;;;6.63;1.98;;;;;;;21.25;59.37;101090.09;6187912;23;20089;-75
2023/07/30 10:42:02;;;;;;;6.22;2.13;;;;;;;21.22;60.97;101088.41;6187940;23;20418;-75
2023/07/30 10:44:34;;;;;;;3.53;2.17;;;;;;;21.23;60.54;101090.59;6160884;23;20419;-76
2023/07/30 10:47:03;;;;;;;6.82;1.88;;;;;;;21.09;59.35;101083.56;6188561;23;20037;-76
2023/07/30 10:49:36;;;;;;;4.53;1.85;;;;;;;20.86;59.38;101095.78;6187781;23;20085;-76
2023/07/30 10:52:03;;;;;;;4.57;1.88;;;;;;;21.31;58.98;101096.19;6162796;23;20531;-75
2023/07/30 10:54:34;;;;;;;6.20;1.50;;;;;;;21.88;56.98;101089.00;6189082;23;20044;-75
2023/07/30 10:57:02;;;;;;;4.60;1.65;;;;;;;22.19;57.41;101099.25;6189218;23;20017;-76
2023/07/30 10:59:39;;;;;;;3.65;1.50;;;;;;;22.55;56.42;101112.59;6189078;23;20018;-76
2023/07/30 11:02:08;;;;;;;4.90;1.90;;;;;;;22.43;57.62;101105.84;6189636;23;20014;-76
2023/07/30 11:04:35;;;;;;;2.45;1.27;;;;;;;22.71;54.66;101097.34;6188885;23;20096;-76
2023/07/30 11:07:03;;;;;;;6.03;1.83;;;;;;;23.10;53.41;101102.19;6189719;23;20045;-76
2023/07/30 11:09:30;;;;;;;5.75;1.80;;;;;;;23.41;55.50;101106.84;6188867;23;20048;-76
2023/07/30 11:11:57;;;;;;;4.45;1.23;;;;;;;23.12;52.81;101116.00;6188838;23;20399;-76
2023/07/30 11:14:28;;;;;;;2.03;1.10;;;;;;;22.53;54.23;101113.09;6188937;23;20443;-76
2023/07/30 11:16:59;;;;;;;3.30;1.55;;;;;;;22.33;53.23;101100.06;6189743;23;20020;-75